logo
Rechercher aéroport 
image banner adimage banner adimage banner ad
image banner ad

NWWT - La Foa Oua Tom

Situé à La Foa, New Caledonia

ICAO - , IATA -

Données fournies par Airmate  

Information générale

Coordonnées: S21°49'11" E165°51'39"
Élévation : 98 feet MSL.
Variation magnétique : 12.25° East
Voir autres Aéroports à (unassigned)

Données opérationnelles

Special qualification required
Heure actuelle UTC:
Heure actuelle locale:
Météo à : NWWW - Noumea La Tontouta ( 42 km )
METAR: NWWW 021830Z AUTO VRB02KT CAVOK 22/21 Q1006 NOSIG
TAF: TAF NWWW 021700Z 0218/0318 VRB02KT CAVOK BECMG 0223/0301 20010KT BECMG 0306/0308 VRB02KT
Voir NOTAMs / SUP AIP / TFR affectant cet aéroport [VIEW]
Fréquences de communication: [VIEW]

Pistes:

Identifiant RWYQFULongueur (ft)Largeur (ft)SurfaceLDA (ft)
13139°2625164GRASS2625
31319°2625164GRASS2625

Coordonnées de l'aéroport

Adresse: La Foa New Caledonia

Vue satellite de NWWT